Time;durP1;ratioP1;P1;durP2;ratioP2;P2;SDS_P1;SDS_P2;PMS_P1;PMS_P2;Temp;Humidity;BMP_temperature;BMP_pressure;BME280_temperature;BME280_humidity;BME280_pressure;Samples;Min_cycle;Max_cycle;Signal;HPM_P1;HPM_P2
2021/05/24 00:02:05;;;;;;;8.15;4.70;;;;;;;18.21;60.50;100269.81;5050245;28;20047;-24
2021/05/24 00:04:30;;;;;;;7.05;5.38;;;;;;;18.55;59.60;100274.78;5050062;28;20401;-24
2021/05/24 00:06:56;;;;;;;7.43;5.25;;;;;;;19.00;57.81;100265.97;5049962;28;20036;-25
2021/05/24 00:09:21;;;;;;;47.30;7.53;;;;;;;18.64;58.55;100257.78;5049973;28;20033;-24
2021/05/24 00:11:50;;;;;;;9.10;5.13;;;;;;;18.78;58.61;100285.09;5048375;28;20499;-24
2021/05/24 00:14:18;;;;;;;7.07;5.07;;;;;;;18.08;60.42;100263.00;5050042;28;20574;-24
2021/05/24 00:16:44;;;;;;;9.05;4.72;;;;;;;18.18;60.84;100275.75;5049745;28;20029;-24
2021/05/24 00:19:09;;;;;;;8.25;5.18;;;;;;;17.34;63.07;100270.13;5050024;28;20102;-24
2021/05/24 00:21:34;;;;;;;6.85;5.00;;;;;;;17.68;61.96;100278.72;5049570;28;20021;-24
2021/05/24 00:24:00;;;;;;;7.82;4.32;;;;;;;17.64;62.07;100282.19;5048933;28;20079;-24
2021/05/24 00:26:25;;;;;;;6.78;4.82;;;;;;;18.39;59.44;100265.84;5049365;28;20036;-24
2021/05/24 00:28:52;;;;;;;6.97;5.10;;;;;;;18.89;57.85;100282.44;5049823;28;20029;-24
2021/05/24 00:31:17;;;;;;;9.43;4.97;;;;;;;18.38;59.46;100269.59;5049365;28;20114;-24
2021/05/24 00:33:43;;;;;;;6.80;5.10;;;;;;;17.89;61.11;100261.84;5049362;28;20086;-24
2021/05/24 00:36:09;;;;;;;6.60;4.88;;;;;;;18.47;59.72;100262.63;5048281;28;20106;-24
2021/05/24 00:38:34;;;;;;;9.88;5.75;;;;;;;18.56;59.17;100262.91;5049322;28;20890;-24
2021/05/24 00:40:59;;;;;;;7.60;5.18;;;;;;;18.43;59.41;100277.72;5049179;28;20481;-24
2021/05/24 00:43:25;;;;;;;7.75;5.50;;;;;;;18.04;60.57;100283.50;5047968;28;20053;-24
2021/05/24 00:45:50;;;;;;;7.60;5.03;;;;;;;17.58;61.63;100270.56;5049611;28;20029;-24
2021/05/24 00:48:16;;;;;;;10.73;5.78;;;;;;;17.14;62.42;100268.09;5048950;28;20037;-24
2021/05/24 00:50:41;;;;;;;6.30;4.80;;;;;;;17.09;63.12;100280.72;5048890;28;20489;-24
2021/05/24 00:53:07;;;;;;;9.55;5.35;;;;;;;17.28;63.25;100284.63;5049259;28;20088;-24
2021/05/24 00:55:32;;;;;;;7.13;5.13;;;;;;;17.59;62.40;100280.28;5049087;28;20810;-24
2021/05/24 00:57:58;;;;;;;10.27;6.03;;;;;;;17.62;61.82;100279.75;5049185;28;20199;-23
2021/05/24 01:00:30;;;;;;;8.35;5.95;;;;;;;16.76;64.88;100255.63;5030879;28;20032;-24
2021/05/24 01:02:57;;;;;;;10.82;6.03;;;;;;;17.24;63.42;100252.00;5048946;28;20111;-24
2021/05/24 01:05:24;;;;;;;9.82;5.50;;;;;;;17.62;61.37;100247.38;5048929;28;20032;-24
2021/05/24 01:07:49;;;;;;;6.78;5.35;;;;;;;18.07;60.26;100270.31;5048712;28;20033;-24
2021/05/24 01:10:15;;;;;;;8.40;4.95;;;;;;;17.60;60.92;100243.34;5048540;28;20044;-24
2021/05/24 01:12:41;;;;;;;6.53;4.82;;;;;;;17.41;62.37;100259.94;5048869;28;20582;-24
2021/05/24 01:15:07;;;;;;;8.10;5.10;;;;;;;17.95;60.37;100271.59;5048670;28;20045;-24
2021/05/24 01:17:32;;;;;;;8.05;5.40;;;;;;;18.02;59.65;100262.19;5048556;28;20461;-24
2021/05/24 01:19:57;;;;;;;8.50;5.43;;;;;;;17.75;61.30;100256.09;5048533;28;20033;-24
2021/05/24 01:22:24;;;;;;;9.35;5.28;;;;;;;18.06;60.46;100263.28;5048234;28;20029;-24
2021/05/24 01:24:49;;;;;;;7.78;5.45;;;;;;;17.86;60.86;100264.00;5048722;28;20044;-24
2021/05/24 01:27:15;;;;;;;10.52;6.63;;;;;;;17.42;62.32;100248.06;5048334;28;20025;-24
2021/05/24 01:29:41;;;;;;;8.38;6.22;;;;;;;17.18;63.06;100258.44;5047375;28;20541;-24
2021/05/24 01:32:07;;;;;;;9.98;6.60;;;;;;;17.28;63.51;100257.69;5048362;28;20028;-24
2021/05/24 01:34:33;;;;;;;11.32;6.47;;;;;;;17.73;61.86;100255.53;5047710;28;20033;-24
2021/05/24 01:36:59;;;;;;;11.48;6.70;;;;;;;17.75;61.79;100264.97;5048314;28;20040;-24
2021/05/24 01:39:25;;;;;;;12.57;7.40;;;;;;;17.95;60.47;100272.41;5048003;28;20044;-24
2021/05/24 01:41:50;;;;;;;10.48;8.05;;;;;;;18.06;60.12;100257.06;5046802;28;20024;-24
2021/05/24 01:44:32;;;;;;;10.45;7.60;;;;;;;17.51;61.74;100239.50;5048279;28;20532;-24
2021/05/24 01:46:57;;;;;;;10.55;7.03;;;;;;;17.37;63.02;100272.31;5047960;28;20025;-23
2021/05/24 01:49:23;;;;;;;9.60;6.70;;;;;;;16.63;64.64;100259.50;5047811;28;20474;-24
2021/05/24 01:51:48;;;;;;;8.63;5.55;;;;;;;15.92;65.76;100252.28;5047564;28;20083;-24
2021/05/24 01:54:14;;;;;;;9.73;6.32;;;;;;;16.61;64.54;100270.56;5047842;28;20098;-24
2021/05/24 01:56:41;;;;;;;11.13;7.50;;;;;;;17.07;63.07;100272.88;5047870;28;20044;-24
2021/05/24 01:59:06;;;;;;;10.43;6.93;;;;;;;17.35;62.06;100269.06;5047584;28;20487;-24
2021/05/24 02:01:32;;;;;;;11.00;7.40;;;;;;;17.13;62.98;100271.84;5048169;28;20062;-24
2021/05/24 02:03:57;;;;;;;13.18;7.10;;;;;;;17.02;63.76;100273.66;5047837;28;20028;-24
2021/05/24 02:06:23;;;;;;;13.75;7.22;;;;;;;17.23;63.27;100280.03;5047360;28;20025;-24
2021/05/24 02:08:48;;;;;;;10.75;6.70;;;;;;;17.60;62.03;100275.69;5047951;28;20041;-24
2021/05/24 02:11:15;;;;;;;10.23;6.75;;;;;;;17.45;62.37;100252.97;5047441;28;20500;-24
2021/05/24 02:13:44;;;;;;;11.82;6.90;;;;;;;17.35;63.04;100270.97;5047552;28;20103;-24
2021/05/24 02:16:10;;;;;;;9.05;6.43;;;;;;;16.84;63.69;100209.41;5047617;28;20040;-24
2021/05/24 02:18:35;;;;;;;13.98;7.10;;;;;;;16.50;65.48;100268.00;5047238;28;20029;-24
2021/05/24 02:21:02;;;;;;;8.23;5.28;;;;;;;15.88;66.18;100261.91;5047294;28;20118;-24
2021/05/24 02:23:28;;;;;;;9.88;6.38;;;;;;;16.40;65.48;100274.88;5047554;28;20033;-24
2021/05/24 02:25:53;;;;;;;8.60;6.05;;;;;;;16.67;64.69;100274.94;5047619;28;20033;-24
2021/05/24 02:28:19;;;;;;;12.68;7.25;;;;;;;17.17;62.87;100294.53;5047442;28;20040;-24
2021/05/24 02:30:44;;;;;;;13.32;7.22;;;;;;;17.19;62.69;100289.69;5047392;28;20040;-24
2021/05/24 02:33:10;;;;;;;9.43;6.55;;;;;;;16.50;65.27;100271.50;5047119;28;20033;-24
2021/05/24 02:35:35;;;;;;;10.27;7.75;;;;;;;17.02;63.94;100280.91;5047172;28;20370;-24
2021/05/24 02:38:01;;;;;;;10.98;7.13;;;;;;;17.05;63.90;100285.81;5047074;28;20029;-24
2021/05/24 02:40:27;;;;;;;18.30;7.57;;;;;;;16.15;66.17;100271.91;5046904;28;20091;-24
2021/05/24 02:42:53;;;;;;;19.90;8.10;;;;;;;15.72;68.11;100278.88;5047012;28;20040;-24
2021/05/24 02:45:19;;;;;;;15.10;6.63;;;;;;;15.92;66.96;100289.13;5046977;28;20029;-24
2021/05/24 02:47:44;;;;;;;12.10;6.60;;;;;;;15.84;65.74;100299.22;5047195;28;20041;-25
2021/05/24 02:50:16;;;;;;;10.52;6.18;;;;;;;16.13;65.32;100307.13;5046754;28;20909;-24
2021/05/24 02:52:42;;;;;;;12.15;6.72;;;;;;;16.39;64.45;100305.56;5047010;28;20416;-24
2021/05/24 02:55:08;;;;;;;17.73;7.38;;;;;;;15.99;65.99;100322.00;5047002;28;20029;-24
2021/05/24 02:57:33;;;;;;;10.73;6.50;;;;;;;15.73;66.73;100324.34;5047125;28;20086;-24
2021/05/24 02:59:59;;;;;;;8.93;6.32;;;;;;;15.04;68.91;100322.69;5047347;28;20538;-24
2021/05/24 03:02:27;;;;;;;11.30;6.22;;;;;;;14.83;69.20;100316.16;5046759;28;20033;-24
2021/05/24 03:04:53;;;;;;;12.15;6.95;;;;;;;15.20;68.22;100329.16;5047086;28;20508;-24
2021/05/24 03:07:18;;;;;;;9.10;5.82;;;;;;;15.43;67.53;100330.06;5047222;28;20059;-24
2021/05/24 03:09:44;;;;;;;9.60;6.32;;;;;;;15.54;67.50;100331.81;5046848;28;20036;-24
2021/05/24 03:12:09;;;;;;;13.45;6.30;;;;;;;16.14;66.11;100334.84;5045427;28;20039;-24
2021/05/24 03:14:35;;;;;;;8.63;6.32;;;;;;;16.15;65.93;100341.88;5046866;28;20033;-24
2021/05/24 03:17:00;;;;;;;8.93;5.90;;;;;;;15.43;68.04;100340.78;5046629;28;20040;-24
2021/05/24 03:19:26;;;;;;;9.52;5.88;;;;;;;14.81;69.24;100334.38;5046830;28;20029;-24
2021/05/24 03:21:51;;;;;;;7.90;5.35;;;;;;;14.82;69.53;100343.22;5046011;28;20553;-24
2021/05/24 03:24:17;;;;;;;10.35;5.20;;;;;;;14.70;70.08;100345.94;5046781;28;20055;-24
2021/05/24 03:26:42;;;;;;;8.32;5.18;;;;;;;14.74;69.79;100339.06;5046903;28;20025;-24
2021/05/24 03:29:08;;;;;;;18.15;6.18;;;;;;;15.08;68.75;100355.25;5046725;28;20037;-24
2021/05/24 03:31:33;;;;;;;9.15;5.88;;;;;;;15.31;68.66;100350.81;5046360;28;20071;-24
2021/05/24 03:33:59;;;;;;;15.68;6.47;;;;;;;15.23;69.13;100347.44;5046612;28;20107;-24
2021/05/24 03:36:24;;;;;;;8.60;5.88;;;;;;;15.31;68.97;100348.94;5046476;28;20432;-24
2021/05/24 03:38:50;;;;;;;8.75;5.78;;;;;;;15.89;67.62;100376.47;5046842;28;20041;-24
2021/05/24 03:41:15;;;;;;;11.05;6.95;;;;;;;16.09;66.87;100369.78;5045412;28;20037;-24
2021/05/24 03:43:45;;;;;;;10.02;7.45;;;;;;;16.28;66.35;100381.84;5046678;28;20044;-24
2021/05/24 03:46:11;;;;;;;9.27;7.13;;;;;;;16.23;67.06;100376.44;5046378;28;20029;-25
2021/05/24 03:48:37;;;;;;;10.02;6.85;;;;;;;16.53;66.61;100386.78;5046516;28;20043;-24
2021/05/24 03:51:04;;;;;;;10.00;7.20;;;;;;;16.78;66.06;100399.72;5044873;28;20045;-24
2021/05/24 03:53:29;;;;;;;12.93;7.60;;;;;;;17.01;65.67;100408.63;5046490;28;20035;-25
2021/05/24 03:55:54;;;;;;;22.35;8.65;;;;;;;17.26;65.11;100408.91;5046638;28;20100;-24
2021/05/24 03:58:20;;;;;;;30.27;9.73;;;;;;;17.87;64.19;100399.72;5047367;28;20500;-24
2021/05/24 04:00:46;;;;;;;25.13;8.98;;;;;;;17.90;63.87;100392.97;5049984;28;20104;-24
2021/05/24 04:03:11;;;;;;;14.13;8.27;;;;;;;17.96;64.19;100411.66;5049839;28;20064;-24
2021/05/24 04:05:39;;;;;;;12.20;8.43;;;;;;;17.61;65.83;100407.59;5050331;28;20044;-24
2021/05/24 04:08:06;;;;;;;13.60;8.77;;;;;;;17.59;66.16;100414.28;5050211;28;20032;-24
2021/05/24 04:10:34;;;;;;;10.93;8.38;;;;;;;17.46;66.88;100410.13;5049546;28;20033;-24
2021/05/24 04:13:00;;;;;;;12.27;8.25;;;;;;;17.29;67.43;100418.34;5049976;28;20112;-24
2021/05/24 04:15:25;;;;;;;13.00;9.13;;;;;;;17.41;66.77;100428.97;5049727;28;20123;-24
2021/05/24 04:17:54;;;;;;;13.45;7.65;;;;;;;17.64;66.36;100396.28;5049914;28;20763;-24
2021/05/24 04:20:19;;;;;;;10.48;7.38;;;;;;;17.76;65.76;100409.59;5049820;28;20486;-24
2021/05/24 04:22:45;;;;;;;10.35;7.35;;;;;;;17.72;66.07;100404.97;5049805;28;20040;-24
2021/05/24 04:25:10;;;;;;;9.55;7.07;;;;;;;18.10;65.03;100424.69;5031988;28;20425;-24
2021/05/24 04:27:36;;;;;;;10.00;7.80;;;;;;;18.16;65.34;100435.25;5048378;28;20028;-24
2021/05/24 04:30:04;;;;;;;10.40;7.25;;;;;;;18.43;64.48;100443.25;5049493;28;20120;-24
2021/05/24 04:32:29;;;;;;;11.05;7.78;;;;;;;18.30;64.99;100441.00;5049217;28;20017;-24
2021/05/24 04:34:54;;;;;;;9.70;7.82;;;;;;;18.48;64.27;100437.88;5049671;28;20029;-26
2021/05/24 04:37:20;;;;;;;12.95;7.88;;;;;;;18.61;64.26;100436.59;5049336;28;20036;-24
2021/05/24 04:39:45;;;;;;;10.43;8.32;;;;;;;18.87;63.70;100434.00;5049356;28;20477;-24
2021/05/24 04:42:12;;;;;;;11.60;8.00;;;;;;;18.86;63.16;100427.81;5049367;28;20048;-25
2021/05/24 04:44:38;;;;;;;8.73;7.40;;;;;;;19.15;62.95;100451.69;5049286;28;20122;-24
2021/05/24 04:47:03;;;;;;;13.23;8.07;;;;;;;19.05;62.68;100432.72;5049352;28;20832;-24
2021/05/24 04:49:31;;;;;;;11.93;7.88;;;;;;;19.44;62.14;100453.91;5049087;28;20067;-24
2021/05/24 04:52:00;;;;;;;11.45;7.95;;;;;;;19.73;61.59;100462.31;5048914;28;20095;-24
2021/05/24 04:54:26;;;;;;;11.30;7.97;;;;;;;19.78;61.28;100450.72;5049041;28;20067;-25
2021/05/24 04:56:51;;;;;;;11.52;7.07;;;;;;;20.02;60.53;100449.09;5048848;28;20451;-24
2021/05/24 04:59:17;;;;;;;12.73;7.78;;;;;;;19.98;60.30;100452.59;5048688;28;20412;-24
2021/05/24 05:01:42;;;;;;;9.73;7.25;;;;;;;20.06;60.76;100466.41;5049047;28;20025;-24
2021/05/24 05:04:07;;;;;;;9.15;7.47;;;;;;;19.92;61.31;100446.38;5048663;28;20028;-25
2021/05/24 05:06:33;;;;;;;8.82;7.00;;;;;;;19.91;60.63;100447.44;5048582;28;20033;-25
2021/05/24 05:08:59;;;;;;;8.82;6.85;;;;;;;20.13;60.45;100460.69;5048730;28;20021;-25
2021/05/24 05:11:24;;;;;;;10.63;7.25;;;;;;;20.62;59.35;100462.78;5048645;28;20033;-24
2021/05/24 05:13:49;;;;;;;10.20;7.53;;;;;;;20.69;58.52;100456.25;5047417;28;20378;-24
2021/05/24 05:16:15;;;;;;;10.57;6.85;;;;;;;20.54;60.27;100470.66;5048630;28;20094;-25
2021/05/24 05:18:41;;;;;;;10.50;6.90;;;;;;;20.47;60.21;100471.75;5049120;28;20037;-24
2021/05/24 05:21:06;;;;;;;10.35;6.65;;;;;;;20.58;59.50;100482.56;5047408;28;20473;-24
2021/05/24 05:23:32;;;;;;;8.65;6.25;;;;;;;20.68;56.89;100471.72;5048519;28;20032;-24
2021/05/24 05:25:57;;;;;;;7.43;5.90;;;;;;;20.89;57.48;100482.47;5048481;28;20124;-24
2021/05/24 05:28:23;;;;;;;12.45;7.45;;;;;;;20.71;59.29;100476.56;5048274;28;20033;-24
2021/05/24 05:30:49;;;;;;;11.27;7.82;;;;;;;20.73;58.92;100468.97;5048190;28;20025;-24
2021/05/24 05:33:15;;;;;;;9.40;6.85;;;;;;;20.81;58.19;100483.84;5048449;28;20056;-24
2021/05/24 05:35:45;;;;;;;8.70;6.53;;;;;;;20.95;57.79;100470.53;5048329;28;20413;-24
2021/05/24 05:38:10;;;;;;;7.80;6.30;;;;;;;21.03;58.08;100494.34;5048324;28;20825;-24
2021/05/24 05:40:36;;;;;;;8.35;5.80;;;;;;;21.02;57.16;100490.00;5048079;28;20036;-24
2021/05/24 05:43:01;;;;;;;10.70;6.70;;;;;;;21.23;58.32;100488.81;5048059;28;20087;-24
2021/05/24 05:45:27;;;;;;;9.43;6.32;;;;;;;21.30;57.52;100503.97;5048361;28;20040;-24
2021/05/24 05:47:52;;;;;;;9.82;6.03;;;;;;;21.53;56.96;100508.72;5048065;28;20029;-24
2021/05/24 05:50:18;;;;;;;7.55;5.38;;;;;;;21.24;56.02;100489.63;5046249;28;20509;-24
2021/05/24 05:52:43;;;;;;;8.13;5.03;;;;;;;21.57;55.41;100504.38;5048177;28;20113;-24
2021/05/24 05:55:09;;;;;;;13.77;5.22;;;;;;;21.76;55.14;100503.69;5048160;28;20106;-24
2021/05/24 05:57:34;;;;;;;8.98;4.70;;;;;;;21.52;54.92;100503.59;5046570;28;20033;-24
2021/05/24 06:00:00;;;;;;;8.48;4.82;;;;;;;21.81;54.74;100498.25;5048131;28;20043;-24
2021/05/24 06:02:25;;;;;;;9.15;4.95;;;;;;;22.03;54.52;100517.59;5047796;28;20025;-24
2021/05/24 06:04:51;;;;;;;12.77;4.82;;;;;;;22.44;52.67;100502.88;5047706;28;20112;-26
2021/05/24 06:07:16;;;;;;;8.45;4.57;;;;;;;21.95;53.04;100501.94;5047654;28;20401;-24
2021/05/24 06:09:42;;;;;;;8.50;4.70;;;;;;;22.22;53.82;100503.31;5047528;28;20036;-24
2021/05/24 06:12:08;;;;;;;6.00;4.10;;;;;;;22.22;53.05;100504.13;5047499;28;20021;-24
2021/05/24 06:14:34;;;;;;;12.80;4.40;;;;;;;22.81;52.08;100515.78;5047725;28;20170;-24
2021/05/24 06:16:59;;;;;;;5.82;3.50;;;;;;;22.95;52.63;100515.88;5046689;28;20043;-24
2021/05/24 06:19:25;;;;;;;6.57;3.58;;;;;;;23.34;51.47;100512.16;5047486;28;20029;-24
2021/05/24 06:21:50;;;;;;;9.18;4.05;;;;;;;23.29;50.20;100509.47;5046991;28;20033;-23
2021/05/24 06:24:15;;;;;;;9.85;3.80;;;;;;;23.37;50.22;100499.84;5047447;28;20516;-24
2021/05/24 06:26:41;;;;;;;9.73;3.45;;;;;;;23.53;48.81;100489.56;5046240;28;20110;-23
2021/05/24 06:29:06;;;;;;;7.13;3.30;;;;;;;23.51;48.30;100505.38;5047561;28;20040;-24
2021/05/24 06:31:33;;;;;;;9.25;3.30;;;;;;;23.71;47.79;100509.72;5047373;28;20032;-23
2021/05/24 06:33:58;;;;;;;12.00;3.75;;;;;;;23.95;48.12;100515.09;5047449;28;20039;-24
2021/05/24 06:36:24;;;;;;;7.35;2.67;;;;;;;23.72;46.82;100512.16;5045793;28;20029;-23
2021/05/24 06:38:49;;;;;;;7.45;3.72;;;;;;;23.87;48.03;100511.13;5047315;28;20044;-23
2021/05/24 06:41:15;;;;;;;5.85;2.92;;;;;;;24.02;46.72;100505.41;5047517;28;20025;-23
2021/05/24 06:43:41;;;;;;;7.15;3.38;;;;;;;24.19;46.66;100514.94;5046730;28;20029;-24
2021/05/24 06:46:06;;;;;;;7.80;2.88;;;;;;;24.20;45.84;100511.13;5047284;28;20056;-24
2021/05/24 06:48:32;;;;;;;5.53;2.75;;;;;;;24.63;44.78;100521.81;5047025;28;20029;-24
2021/05/24 06:50:58;;;;;;;6.97;2.90;;;;;;;24.72;44.71;100528.16;5046871;28;20045;-24
2021/05/24 06:53:23;;;;;;;5.80;2.70;;;;;;;24.71;44.91;100525.75;5046915;28;20032;-24
2021/05/24 06:55:49;;;;;;;7.25;3.40;;;;;;;25.19;44.63;100533.50;5047039;28;20028;-23
2021/05/24 06:58:14;;;;;;;8.70;3.47;;;;;;;25.05;45.24;100544.44;5046601;28;20036;-24
2021/05/24 07:00:39;;;;;;;5.28;2.67;;;;;;;24.99;44.84;100523.84;5047374;28;20614;-24
2021/05/24 07:03:05;;;;;;;7.72;3.30;;;;;;;25.25;44.05;100554.97;5047141;28;20467;-24
2021/05/24 07:05:30;;;;;;;7.05;3.20;;;;;;;25.36;42.39;100550.09;5047204;28;20036;-24
2021/05/24 07:07:56;;;;;;;7.75;3.47;;;;;;;25.65;42.17;100559.84;5046898;28;20033;-23
2021/05/24 07:10:21;;;;;;;6.25;2.92;;;;;;;25.58;42.41;100554.81;5046425;28;20033;-24
2021/05/24 07:12:47;;;;;;;7.10;2.60;;;;;;;25.71;41.92;100555.06;5046787;28;20032;-23
2021/05/24 07:15:13;;;;;;;9.05;3.20;;;;;;;25.62;41.56;100579.56;5046879;28;20039;-23
2021/05/24 07:17:38;;;;;;;8.18;2.58;;;;;;;25.48;41.76;100565.13;5046974;28;20048;-24
2021/05/24 07:20:05;;;;;;;8.70;2.95;;;;;;;25.54;41.17;100575.66;5046948;28;20033;-24
2021/05/24 07:22:31;;;;;;;4.95;2.70;;;;;;;26.03;39.85;100570.44;5046566;28;20543;-23
2021/05/24 07:24:57;;;;;;;7.47;3.00;;;;;;;26.37;39.52;100563.59;5046667;28;20040;-23
2021/05/24 07:27:22;;;;;;;7.13;3.00;;;;;;;26.54;40.22;100576.53;5047172;28;20440;-23
2021/05/24 07:29:48;;;;;;;8.82;2.63;;;;;;;26.41;39.81;100580.97;5046976;28;20036;-23
2021/05/24 07:32:13;;;;;;;7.07;2.70;;;;;;;26.56;39.41;100577.03;5046512;28;20024;-24
2021/05/24 07:34:39;;;;;;;6.45;2.55;;;;;;;26.73;38.15;100571.69;5050029;28;20040;-24
2021/05/24 07:37:04;;;;;;;12.55;2.75;;;;;;;26.98;38.69;100583.06;5050519;28;20406;-23
2021/05/24 07:39:30;;;;;;;8.48;2.42;;;;;;;27.07;39.27;100586.59;5050556;28;20599;-24
2021/05/24 07:41:59;;;;;;;6.55;2.60;;;;;;;26.96;38.75;100574.34;5050605;28;20025;-24
2021/05/24 07:44:25;;;;;;;6.43;2.83;;;;;;;26.84;39.33;100574.94;5050027;28;20021;-23
2021/05/24 07:46:51;;;;;;;7.68;2.70;;;;;;;26.93;37.62;100583.19;5050486;28;20048;-23
2021/05/24 07:49:18;;;;;;;7.97;2.60;;;;;;;27.37;38.07;100593.16;5050577;28;20040;-22
2021/05/24 07:51:44;;;;;;;6.40;2.53;;;;;;;27.48;37.49;100588.19;5049960;28;20078;-23
2021/05/24 07:54:09;;;;;;;8.43;2.72;;;;;;;27.46;37.44;100576.72;5049005;28;20900;-22
2021/05/24 07:56:35;;;;;;;8.07;2.55;;;;;;;27.17;38.08;100588.25;5050209;28;20607;-22
2021/05/24 07:59:00;;;;;;;9.63;2.90;;;;;;;27.55;38.09;100598.69;5050294;28;20036;-23
2021/05/24 08:01:26;;;;;;;10.45;3.05;;;;;;;27.75;36.70;100589.03;5050335;28;20051;-22
2021/05/24 08:03:51;;;;;;;4.45;2.40;;;;;;;28.10;36.70;100594.53;5049845;28;20028;-23
2021/05/24 08:06:16;;;;;;;7.25;2.60;;;;;;;28.32;36.28;100601.72;5049890;28;20037;-23
2021/05/24 08:08:43;;;;;;;6.70;2.40;;;;;;;28.47;34.62;100589.47;5049817;28;20033;-22
2021/05/24 08:11:11;;;;;;;7.07;2.67;;;;;;;28.12;35.81;100592.28;5049614;28;20032;-23
2021/05/24 08:13:37;;;;;;;5.85;2.40;;;;;;;28.83;33.35;100598.06;5049986;28;20033;-23
2021/05/24 08:16:02;;;;;;;8.57;2.67;;;;;;;28.64;35.33;100575.69;5050040;28;20413;-22
2021/05/24 08:18:27;;;;;;;6.40;2.67;;;;;;;28.77;34.95;100593.91;5049754;28;20087;-22
2021/05/24 08:20:53;;;;;;;6.40;2.30;;;;;;;29.41;33.74;100592.94;5049791;28;20409;-22
2021/05/24 08:23:18;;;;;;;6.05;2.30;;;;;;;29.83;33.00;100597.66;5049475;28;20021;-22
2021/05/24 08:25:44;;;;;;;9.40;2.53;;;;;;;29.81;32.46;100577.97;5049767;28;20103;-22
2021/05/24 08:28:10;;;;;;;7.78;2.65;;;;;;;29.97;33.72;100598.19;5049393;28;20499;-23
2021/05/24 08:30:35;;;;;;;4.97;2.25;;;;;;;29.78;33.27;100592.38;5049705;28;20039;-22
2021/05/24 08:33:01;;;;;;;7.43;3.13;;;;;;;29.46;33.08;100586.44;5049686;28;20037;-22
2021/05/24 08:35:26;;;;;;;8.10;2.60;;;;;;;29.35;31.64;100598.97;5049483;28;20040;-22
2021/05/24 08:37:52;;;;;;;6.63;2.58;;;;;;;29.33;33.02;100601.25;5049369;28;20487;-22
2021/05/24 08:40:21;;;;;;;5.72;2.40;;;;;;;29.44;33.70;100589.53;5049279;28;20029;-22
2021/05/24 08:42:48;;;;;;;5.97;2.42;;;;;;;29.55;33.94;100600.94;5049484;28;20028;-22
2021/05/24 08:45:14;;;;;;;7.15;2.30;;;;;;;29.35;33.81;100598.97;5048975;28;20029;-22
2021/05/24 08:47:39;;;;;;;6.75;2.40;;;;;;;29.03;33.87;100592.97;5049379;28;20509;-22
2021/05/24 08:50:05;;;;;;;5.22;2.30;;;;;;;28.88;34.40;100586.09;5048900;28;20053;-22
2021/05/24 08:52:31;;;;;;;9.23;2.65;;;;;;;29.23;34.76;100599.69;5048797;28;20087;-23
2021/05/24 08:54:56;;;;;;;5.80;2.53;;;;;;;29.29;34.05;100605.81;5049169;28;20044;-22
2021/05/24 08:57:22;;;;;;;4.85;2.58;;;;;;;29.34;33.63;100597.34;5049374;28;20035;-22
2021/05/24 08:59:47;;;;;;;7.68;2.60;;;;;;;29.60;33.66;100605.44;5049143;28;20033;-26
2021/05/24 09:02:13;;;;;;;6.15;2.45;;;;;;;30.43;32.20;100604.56;5049127;28;20032;-23
2021/05/24 09:04:56;;;;;;;4.18;2.30;;;;;;;30.64;31.55;100592.69;5049079;28;20086;-22
2021/05/24 09:07:21;;;;;;;4.88;2.30;;;;;;;30.16;31.44;100588.63;5031248;28;20036;-22
2021/05/24 09:10:06;;;;;;;8.90;2.50;;;;;;;30.34;33.12;100595.63;5048919;28;20040;-23
2021/05/24 09:12:32;;;;;;;6.25;2.30;;;;;;;30.24;32.38;100596.03;5048539;28;20033;-22
2021/05/24 09:14:59;;;;;;;6.78;2.80;;;;;;;30.46;32.03;100572.81;5048590;28;20037;-23
2021/05/24 09:17:25;;;;;;;6.88;2.00;;;;;;;30.82;29.45;100572.06;5048652;28;20025;-22
2021/05/24 09:19:50;;;;;;;7.00;2.42;;;;;;;30.66;30.67;100565.63;5048554;28;20103;-22
2021/05/24 09:22:16;;;;;;;7.80;2.65;;;;;;;31.16;30.44;100559.00;5048363;28;20401;-22
2021/05/24 09:24:42;;;;;;;7.90;2.60;;;;;;;31.02;30.70;100558.56;5048698;28;20033;-22
2021/05/24 09:27:27;;;;;;;6.32;2.60;;;;;;;30.73;29.24;100538.34;5048500;28;20065;-23
2021/05/24 09:29:54;;;;;;;5.97;2.60;;;;;;;30.88;30.08;100563.63;5048424;28;20036;-24
2021/05/24 09:32:26;;;;;;;8.48;2.53;;;;;;;30.66;29.41;100557.38;5030473;28;20021;-22
2021/05/24 09:34:52;;;;;;;4.65;2.47;;;;;;;30.39;30.68;100559.63;5048451;28;20520;-22
2021/05/24 09:37:29;;;;;;;6.00;2.22;;;;;;;30.59;28.91;100562.66;5048546;28;20668;-22
2021/05/24 09:39:55;;;;;;;6.22;2.25;;;;;;;31.14;28.01;100544.78;5047115;28;20029;-22
2021/05/24 09:42:20;;;;;;;7.35;2.20;;;;;;;30.88;28.02;100542.38;5047776;28;20064;-24
2021/05/24 09:44:53;;;;;;;5.57;2.50;;;;;;;30.94;29.66;100545.72;5048324;28;20064;-23
2021/05/24 09:47:35;;;;;;;7.07;2.30;;;;;;;31.16;28.91;100547.97;5047051;28;20055;-22
2021/05/24 09:50:20;;;;;;;7.82;2.70;;;;;;;32.03;27.72;100546.59;5048109;28;20146;-22
2021/05/24 09:52:47;;;;;;;5.35;3.22;;;;;;;32.33;27.13;100550.91;5047936;28;20481;-22
2021/05/24 09:55:23;;;;;;;7.57;2.30;;;;;;;32.73;27.07;100534.19;5047516;28;20463;-22
2021/05/24 09:58:01;;;;;;;6.53;2.30;;;;;;;31.76;27.15;100525.31;5047745;28;20564;-22
2021/05/24 10:00:45;;;;;;;7.55;2.33;;;;;;;32.40;27.97;100542.81;5047669;28;20063;-22
2021/05/24 10:03:12;;;;;;;7.40;2.15;;;;;;;32.19;27.80;100527.31;5047577;28;20028;-22
2021/05/24 10:05:48;;;;;;;4.63;2.15;;;;;;;31.81;28.32;100525.88;5047735;28;20030;-22
2021/05/24 10:08:14;;;;;;;6.30;2.40;;;;;;;31.69;27.95;100519.59;5047668;28;20040;-23
2021/05/24 10:10:41;;;;;;;6.43;2.42;;;;;;;31.44;26.29;100530.72;5047762;28;20036;-22
2021/05/24 10:13:06;;;;;;;6.88;2.00;;;;;;;32.30;26.84;100530.31;5048107;28;20126;-22
2021/05/24 10:15:32;;;;;;;8.23;2.45;;;;;;;33.12;26.13;100533.50;5046337;28;20032;-22
2021/05/24 10:18:02;;;;;;;7.45;2.70;;;;;;;33.12;25.48;100528.00;5046538;28;20420;-22
2021/05/24 10:20:31;;;;;;;6.47;2.50;;;;;;;33.05;25.58;100514.78;5047622;28;20031;-22
2021/05/24 10:22:57;;;;;;;6.53;2.40;;;;;;;33.39;26.22;100526.22;5047661;28;20032;-22
2021/05/24 10:25:22;;;;;;;6.82;2.00;;;;;;;33.99;25.93;100512.00;5047578;28;20048;-22
2021/05/24 10:27:48;;;;;;;6.40;2.08;;;;;;;33.04;25.86;100510.44;5046486;28;20028;-22
2021/05/24 10:30:14;;;;;;;7.80;2.25;;;;;;;33.48;26.66;100517.72;5045633;28;20033;-22
2021/05/24 10:33:15;;;;;;;7.32;2.08;;;;;;;34.02;25.65;100522.31;5046022;28;20047;-22
2021/05/24 10:35:45;;;;;;;5.53;1.98;;;;;;;33.41;25.76;100508.09;5045930;28;20143;-23
2021/05/24 10:38:19;;;;;;;5.78;2.20;;;;;;;33.91;25.02;100521.34;5047076;28;20029;-23
2021/05/24 10:40:45;;;;;;;6.03;2.38;;;;;;;34.01;25.11;100513.22;5047346;28;20025;-22
2021/05/24 10:43:13;;;;;;;5.30;1.83;;;;;;;33.80;25.27;100505.34;5047151;28;20413;-22
2021/05/24 10:45:38;;;;;;;6.57;2.15;;;;;;;33.32;24.40;100509.47;5047307;28;20025;-22
2021/05/24 10:48:04;;;;;;;9.30;2.35;;;;;;;33.15;24.75;100488.59;5047398;28;20127;-23
2021/05/24 10:50:30;;;;;;;5.53;1.95;;;;;;;33.55;23.34;100474.41;5046607;28;20737;-23
2021/05/24 10:53:00;;;;;;;5.10;2.10;;;;;;;33.77;23.49;100491.44;5047434;28;20541;-22
2021/05/24 10:55:25;;;;;;;5.72;1.92;;;;;;;33.85;24.17;100498.69;5046894;28;20033;-22
2021/05/24 10:58:15;;;;;;;6.28;2.80;;;;;;;34.46;23.34;100499.78;5047068;28;20032;-22
2021/05/24 11:01:01;;;;;;;5.30;1.92;;;;;;;33.96;23.90;100499.72;5043216;28;20409;-22
2021/05/24 11:03:26;;;;;;;6.80;2.00;;;;;;;33.22;23.83;100489.56;5047006;28;20455;-22
2021/05/24 11:06:07;;;;;;;7.43;2.10;;;;;;;33.52;24.48;100499.22;5046810;28;20521;-22
2021/05/24 11:08:35;;;;;;;7.07;2.35;;;;;;;33.25;25.01;100488.03;5050248;28;20154;-22
2021/05/24 11:11:21;;;;;;;3.85;1.75;;;;;;;32.88;25.26;100490.34;5051104;28;20032;-22
2021/05/24 11:14:07;;;;;;;5.47;2.20;;;;;;;32.88;25.12;100482.06;5050083;28;20397;-22
2021/05/24 11:16:33;;;;;;;8.10;1.92;;;;;;;33.38;26.21;100485.91;5050633;28;20643;-22
2021/05/24 11:19:12;;;;;;;5.13;2.20;;;;;;;33.21;24.91;100481.63;5051104;28;20116;-22
2021/05/24 11:21:38;;;;;;;4.57;1.95;;;;;;;33.45;24.15;100486.06;5050949;28;20090;-22